Time,TemperatureF,DewpointF,PressureIn,WindDirection,WindDirectionDegrees,WindSpeedMPH,WindSpeedGustMPH,Humidity,HourlyPrecipIn,Conditions,Clouds,dailyrainin,SoftwareType,DateUTC
2013-10-04 00:05:00,78.4,77.5,30.00,North,32767,0.0,0.0,97,0.00,,,0.00,Wunderground v.1.15,2013-10-04 05:05:00,
2013-10-04 00:15:00,78.5,77.6,29.99,North,32767,0.0,0.0,97,0.00,,,0.00,Wunderground v.1.15,2013-10-04 05:15:00,
2013-10-04 00:20:00,78.4,77.5,29.99,North,32767,0.0,0.0,97,0.00,,,0.00,Wunderground v.1.15,2013-10-04 05:20:00,
2013-10-04 00:35:00,78.1,77.2,29.98,North,32767,0.0,0.0,97,0.00,,,0.00,Wunderground v.1.15,2013-10-04 05:35:00,
2013-10-04 00:40:00,78.0,77.1,29.98,North,32767,0.0,0.0,97,0.00,,,0.00,Wunderground v.1.15,2013-10-04 05:40:00,
2013-10-04 00:45:00,77.9,77.0,29.98,North,32767,0.0,0.0,97,0.00,,,0.00,Wunderground v.1.15,2013-10-04 05:45:00,
2013-10-04 00:50:00,77.8,77.2,29.98,North,32767,0.0,0.0,98,0.00,,,0.00,Wunderground v.1.15,2013-10-04 05:50:00,
2013-10-04 00:55:00,77.7,77.1,29.98,North,32767,0.0,0.0,98,0.00,,,0.00,Wunderground v.1.15,2013-10-04 05:55:00,
2013-10-04 01:00:00,77.7,77.1,29.98,North,32767,0.0,0.0,98,0.00,,,0.00,Wunderground v.1.15,2013-10-04 06:00:00,
2013-10-04 01:05:00,77.6,77.0,29.98,North,32767,0.0,0.0,98,0.00,,,0.00,Wunderground v.1.15,2013-10-04 06:05:00,
2013-10-04 01:10:00,77.5,76.9,29.98,North,32767,0.0,0.0,98,0.00,,,0.00,Wunderground v.1.15,2013-10-04 06:10:00,
2013-10-04 01:15:00,77.4,76.8,29.98,North,32767,0.0,0.0,98,0.00,,,0.00,Wunderground v.1.15,2013-10-04 06:15:00,
2013-10-04 01:20:00,77.4,76.8,29.98,North,32767,0.0,0.0,98,0.00,,,0.00,Wunderground v.1.15,2013-10-04 06:20:00,
2013-10-04 01:25:00,77.3,76.7,29.98,North,32767,0.0,0.0,98,0.00,,,0.00,Wunderground v.1.15,2013-10-04 06:25:00,
2013-10-04 01:30:00,77.2,76.6,29.98,North,32767,0.0,0.0,98,0.00,,,0.00,Wunderground v.1.15,2013-10-04 06:30:00,
2013-10-04 01:35:00,77.2,76.6,29.98,North,32767,0.0,0.0,98,0.00,,,0.00,Wunderground v.1.15,2013-10-04 06:35:00,
2013-10-04 01:40:00,77.2,76.6,29.98,North,32767,0.0,0.0,98,0.00,,,0.00,Wunderground v.1.15,2013-10-04 06:40:00,
2013-10-04 01:45:00,77.1,76.5,29.98,North,32767,0.0,0.0,98,0.00,,,0.00,Wunderground v.1.15,2013-10-04 06:45:00,
2013-10-04 01:50:00,77.2,76.6,29.98,North,32767,0.0,0.0,98,0.00,,,0.00,Wunderground v.1.15,2013-10-04 06:50:00,
2013-10-04 01:55:00,77.2,76.6,29.98,North,32767,0.0,0.0,98,0.00,,,0.00,Wunderground v.1.15,2013-10-04 06:55:00,
2013-10-04 02:00:00,77.1,76.5,29.98,North,32767,0.0,0.0,98,0.00,,,0.00,Wunderground v.1.15,2013-10-04 07:00:00,
2013-10-04 02:05:00,77.1,76.5,29.98,North,32767,0.0,0.0,98,0.00,,,0.00,Wunderground v.1.15,2013-10-04 07:05:00,
2013-10-04 02:10:00,77.1,76.5,29.98,North,32767,0.0,0.0,98,0.00,,,0.00,Wunderground v.1.15,2013-10-04 07:10:00,
2013-10-04 02:15:00,77.2,76.6,29.98,North,32767,0.0,0.0,98,0.00,,,0.00,Wunderground v.1.15,2013-10-04 07:15:00,
2013-10-04 02:25:00,77.3,76.7,29.97,North,32767,0.0,0.0,98,0.00,,,0.00,Wunderground v.1.15,2013-10-04 07:25:00,
2013-10-04 02:30:00,77.4,76.8,29.97,North,32767,0.0,0.0,98,0.00,,,0.00,Wunderground v.1.15,2013-10-04 07:30:00,
2013-10-04 02:35:00,77.5,76.9,29.97,North,32767,0.0,0.0,98,0.00,,,0.00,Wunderground v.1.15,2013-10-04 07:35:00,
2013-10-04 02:40:00,77.6,77.0,29.97,North,32767,0.0,0.0,98,0.00,,,0.00,Wunderground v.1.15,2013-10-04 07:40:00,
2013-10-04 02:45:00,77.6,77.0,29.97,North,32767,0.0,0.0,98,0.00,,,0.00,Wunderground v.1.15,2013-10-04 07:45:00,
2013-10-04 02:50:00,77.7,77.1,29.97,North,32767,0.0,0.0,98,0.00,,,0.00,Wunderground v.1.15,2013-10-04 07:50:00,
2013-10-04 02:55:00,77.7,77.1,29.96,North,32767,0.0,0.0,98,0.00,,,0.00,Wunderground v.1.15,2013-10-04 07:55:00,
2013-10-04 03:00:00,77.8,77.2,29.96,North,32767,0.0,0.0,98,0.00,,,0.00,Wunderground v.1.15,2013-10-04 08:00:00,
2013-10-04 03:05:00,77.8,76.9,29.96,North,32767,0.0,0.0,97,0.00,,,0.00,Wunderground v.1.15,2013-10-04 08:05:00,
2013-10-04 03:10:00,77.8,76.9,29.97,North,32767,0.0,0.0,97,0.00,,,0.00,Wunderground v.1.15,2013-10-04 08:10:00,
2013-10-04 03:15:00,77.7,76.8,29.96,North,32767,0.0,0.0,97,0.00,,,0.00,Wunderground v.1.15,2013-10-04 08:15:00,
2013-10-04 03:20:00,77.7,76.8,29.96,North,32767,0.0,0.0,97,0.00,,,0.00,Wunderground v.1.15,2013-10-04 08:20:00,
2013-10-04 03:25:00,77.7,76.8,29.96,North,32767,0.0,0.0,97,0.00,,,0.00,Wunderground v.1.15,2013-10-04 08:25:00,
2013-10-04 03:30:00,77.6,76.7,29.96,North,32767,0.0,0.0,97,0.00,,,0.00,Wunderground v.1.15,2013-10-04 08:30:00,
2013-10-04 03:35:00,77.5,76.6,29.96,North,32767,0.0,0.0,97,0.00,,,0.00,Wunderground v.1.15,2013-10-04 08:35:00,
2013-10-04 03:40:00,77.5,76.6,29.96,North,32767,0.0,0.0,97,0.00,,,0.00,Wunderground v.1.15,2013-10-04 08:40:00,
2013-10-04 03:45:00,77.4,76.5,29.97,North,32767,0.0,0.0,97,0.00,,,0.00,Wunderground v.1.15,2013-10-04 08:45:00,
2013-10-04 03:50:00,77.3,76.4,29.96,North,32767,0.0,0.0,97,0.00,,,0.00,Wunderground v.1.15,2013-10-04 08:50:00,
2013-10-04 03:55:00,77.2,76.3,29.96,North,32767,0.0,0.0,97,0.00,,,0.00,Wunderground v.1.15,2013-10-04 08:55:00,
2013-10-04 04:00:00,77.3,76.4,29.96,North,32767,0.0,0.0,97,0.00,,,0.00,Wunderground v.1.15,2013-10-04 09:00:00,
2013-10-04 04:05:00,77.3,76.4,29.96,North,32767,0.0,0.0,97,0.00,,,0.00,Wunderground v.1.15,2013-10-04 09:05:00,
2013-10-04 04:10:00,77.3,76.4,29.97,North,32767,0.0,0.0,97,0.00,,,0.00,Wunderground v.1.15,2013-10-04 09:10:00,
2013-10-04 04:15:00,77.4,76.5,29.97,North,32767,0.0,0.0,97,0.00,,,0.00,Wunderground v.1.15,2013-10-04 09:15:00,
2013-10-04 04:20:00,77.5,76.6,29.97,North,32767,0.0,0.0,97,0.00,,,0.00,Wunderground v.1.15,2013-10-04 09:20:00,
2013-10-04 04:25:00,77.5,76.6,29.97,North,32767,0.0,0.0,97,0.00,,,0.00,Wunderground v.1.15,2013-10-04 09:25:00,
2013-10-04 04:30:00,77.6,76.7,29.97,North,32767,0.0,0.0,97,0.00,,,0.00,Wunderground v.1.15,2013-10-04 09:30:00,
2013-10-04 04:35:00,77.7,76.8,29.97,North,32767,0.0,0.0,97,0.00,,,0.00,Wunderground v.1.15,2013-10-04 09:35:00,
2013-10-04 04:40:00,77.7,76.8,29.97,North,32767,0.0,0.0,97,0.00,,,0.00,Wunderground v.1.15,2013-10-04 09:40:00,
2013-10-04 04:45:00,77.9,77.0,29.97,North,32767,0.0,0.0,97,0.00,,,0.00,Wunderground v.1.15,2013-10-04 09:45:00,
2013-10-04 04:50:00,77.9,77.0,29.97,North,32767,0.0,0.0,97,0.00,,,0.00,Wunderground v.1.15,2013-10-04 09:50:00,
2013-10-04 04:55:00,77.8,76.9,29.97,North,32767,0.0,0.0,97,0.00,,,0.00,Wunderground v.1.15,2013-10-04 09:55:00,
2013-10-04 05:00:00,77.8,77.2,29.97,North,32767,0.0,0.0,98,0.00,,,0.00,Wunderground v.1.15,2013-10-04 10:00:00,
2013-10-04 05:05:00,77.8,77.2,29.97,North,32767,0.0,0.0,98,0.00,,,0.00,Wunderground v.1.15,2013-10-04 10:05:00,
2013-10-04 05:10:00,77.8,77.2,29.97,North,32767,0.0,0.0,98,0.00,,,0.00,Wunderground v.1.15,2013-10-04 10:10:00,
2013-10-04 05:15:00,77.7,77.1,29.97,North,32767,0.0,0.0,98,0.00,,,0.00,Wunderground v.1.15,2013-10-04 10:15:00,
2013-10-04 05:20:00,77.7,77.1,29.97,North,32767,0.0,0.0,98,0.00,,,0.00,Wunderground v.1.15,2013-10-04 10:20:00,
2013-10-04 05:25:00,77.7,76.8,29.97,North,32767,0.0,0.0,97,0.00,,,0.00,Wunderground v.1.15,2013-10-04 10:25:00,
2013-10-04 05:30:00,77.7,76.8,29.98,North,32767,0.0,0.0,97,0.00,,,0.00,Wunderground v.1.15,2013-10-04 10:30:00,
2013-10-04 05:35:00,77.7,76.8,29.98,North,32767,0.0,0.0,97,0.00,,,0.00,Wunderground v.1.15,2013-10-04 10:35:00,
2013-10-04 05:40:00,77.7,76.8,29.98,North,32767,0.0,0.0,97,0.00,,,0.00,Wunderground v.1.15,2013-10-04 10:40:00,
2013-10-04 05:45:00,77.7,76.8,29.98,North,32767,0.0,0.0,97,0.00,,,0.00,Wunderground v.1.15,2013-10-04 10:45:00,
2013-10-04 05:50:00,77.8,76.9,29.98,North,32767,0.0,0.0,97,0.00,,,0.00,Wunderground v.1.15,2013-10-04 10:50:00,
2013-10-04 05:55:00,77.8,76.9,29.98,North,32767,0.0,0.0,97,0.00,,,0.00,Wunderground v.1.15,2013-10-04 10:55:00,
2013-10-04 06:00:00,77.8,76.9,29.99,North,32767,0.0,0.0,97,0.00,,,0.00,Wunderground v.1.15,2013-10-04 11:00:00,
2013-10-04 06:10:00,77.9,77.0,29.99,North,32767,0.0,0.0,97,0.00,,,0.00,Wunderground v.1.15,2013-10-04 11:10:00,
2013-10-04 06:15:00,77.9,77.0,29.99,North,32767,0.0,0.0,97,0.00,,,0.00,Wunderground v.1.15,2013-10-04 11:15:00,
2013-10-04 06:20:00,77.8,76.9,29.99,North,32767,0.0,0.0,97,0.00,,,0.00,Wunderground v.1.15,2013-10-04 11:20:00,
2013-10-04 06:25:00,77.8,76.9,29.99,North,32767,0.0,0.0,97,0.00,,,0.00,Wunderground v.1.15,2013-10-04 11:25:00,
2013-10-04 06:30:00,78.0,77.1,30.00,North,32767,0.0,0.0,97,0.00,,,0.00,Wunderground v.1.15,2013-10-04 11:30:00,
2013-10-04 06:35:00,78.0,77.1,30.00,North,32767,0.0,0.0,97,0.00,,,0.00,Wunderground v.1.15,2013-10-04 11:35:00,
2013-10-04 06:40:00,78.0,77.1,30.00,North,32767,0.0,0.0,97,0.00,,,0.00,Wunderground v.1.15,2013-10-04 11:40:00,
2013-10-04 06:45:00,78.0,77.1,30.00,North,32767,0.0,0.0,97,0.00,,,0.00,Wunderground v.1.15,2013-10-04 11:45:00,
2013-10-04 06:50:00,78.0,77.1,30.00,North,32767,0.0,0.0,97,0.00,,,0.00,Wunderground v.1.15,2013-10-04 11:50:00,
2013-10-04 06:55:00,78.0,77.4,30.00,North,32767,0.0,0.0,98,0.00,,,0.00,Wunderground v.1.15,2013-10-04 11:55:00,
2013-10-04 07:00:00,78.0,77.4,30.00,North,32767,0.0,0.0,98,0.00,,,0.00,Wunderground v.1.15,2013-10-04 12:00:00,
2013-10-04 07:05:00,78.1,77.5,30.00,North,32767,0.0,0.0,98,0.00,,,0.00,Wunderground v.1.15,2013-10-04 12:05:00,
2013-10-04 07:10:00,78.2,77.6,30.00,North,32767,0.0,0.0,98,0.00,,,0.00,Wunderground v.1.15,2013-10-04 12:10:00,
2013-10-04 07:15:00,78.2,77.6,30.01,North,32767,0.0,0.0,98,0.00,,,0.00,Wunderground v.1.15,2013-10-04 12:15:00,
2013-10-04 07:20:00,78.3,77.4,30.01,North,32767,0.0,0.0,97,0.00,,,0.00,Wunderground v.1.15,2013-10-04 12:20:00,
2013-10-04 07:25:00,78.4,77.5,30.01,North,32767,0.0,0.0,97,0.00,,,0.00,Wunderground v.1.15,2013-10-04 12:25:00,
2013-10-04 07:30:00,78.5,77.6,30.01,North,32767,0.0,0.0,97,0.00,,,0.00,Wunderground v.1.15,2013-10-04 12:30:00,
2013-10-04 07:35:00,78.7,77.8,30.01,North,32767,0.0,0.0,97,0.00,,,0.00,Wunderground v.1.15,2013-10-04 12:35:00,
2013-10-04 07:40:00,78.9,77.7,30.01,North,32767,0.0,0.0,96,0.00,,,0.00,Wunderground v.1.15,2013-10-04 12:40:00,
2013-10-04 07:45:00,79.1,77.9,30.01,North,32767,0.0,0.0,96,0.00,,,0.00,Wunderground v.1.15,2013-10-04 12:45:00,
2013-10-04 07:50:00,79.3,78.1,30.01,North,32767,0.0,0.0,96,0.00,,,0.00,Wunderground v.1.15,2013-10-04 12:50:00,
2013-10-04 07:55:00,79.4,78.2,30.01,North,32767,0.0,0.0,96,0.00,,,0.00,Wunderground v.1.15,2013-10-04 12:55:00,
2013-10-04 08:00:00,79.6,78.4,30.01,North,32767,0.0,0.0,96,0.00,,,0.00,Wunderground v.1.15,2013-10-04 13:00:00,
2013-10-04 08:05:00,79.7,78.5,30.01,North,32767,0.0,0.0,96,0.00,,,0.00,Wunderground v.1.15,2013-10-04 13:05:00,
2013-10-04 08:10:00,79.8,78.6,30.01,North,32767,0.0,0.0,96,0.00,,,0.00,Wunderground v.1.15,2013-10-04 13:10:00,
2013-10-04 08:15:00,80.0,78.8,30.01,North,32767,0.0,0.0,96,0.00,,,0.00,Wunderground v.1.15,2013-10-04 13:15:00,
2013-10-04 08:20:00,79.8,78.9,30.01,North,32767,0.0,0.0,97,0.00,,,0.00,Wunderground v.1.15,2013-10-04 13:20:00,
2013-10-04 08:25:00,79.8,78.9,30.01,North,32767,0.0,0.0,97,0.00,,,0.00,Wunderground v.1.15,2013-10-04 13:25:00,
2013-10-04 08:30:00,79.8,78.9,30.01,North,32767,0.0,0.0,97,0.00,,,0.00,Wunderground v.1.15,2013-10-04 13:30:00,
2013-10-04 08:35:00,79.7,78.8,30.01,North,32767,0.0,0.0,97,0.00,,,0.00,Wunderground v.1.15,2013-10-04 13:35:00,
2013-10-04 08:40:00,79.6,78.7,30.02,North,32767,0.0,0.0,97,0.00,,,0.00,Wunderground v.1.15,2013-10-04 13:40:00,
2013-10-04 08:50:00,79.6,78.7,30.02,North,32767,0.0,0.0,97,0.00,,,0.00,Wunderground v.1.15,2013-10-04 13:50:00,
2013-10-04 08:55:00,80.1,79.2,30.02,North,32767,0.0,0.0,97,0.00,,,0.00,Wunderground v.1.15,2013-10-04 13:55:00,
2013-10-04 09:00:00,80.4,79.5,30.02,North,32767,0.0,0.0,97,0.00,,,0.00,Wunderground v.1.15,2013-10-04 14:00:00,
2013-10-04 09:05:00,80.6,79.4,30.02,North,32767,0.0,0.0,96,0.00,,,0.00,Wunderground v.1.15,2013-10-04 14:05:00,
2013-10-04 09:10:00,80.5,79.3,30.02,North,32767,0.0,0.0,96,0.00,,,0.00,Wunderground v.1.15,2013-10-04 14:10:00,
2013-10-04 09:15:00,80.4,78.8,30.02,North,32767,0.0,0.0,95,0.00,,,0.00,Wunderground v.1.15,2013-10-04 14:15:00,
2013-10-04 09:20:00,80.3,79.1,30.02,North,32767,0.0,0.0,96,0.00,,,0.00,Wunderground v.1.15,2013-10-04 14:20:00,
2013-10-04 09:25:00,80.5,78.9,30.02,North,32767,0.0,0.0,95,0.00,,,0.00,Wunderground v.1.15,2013-10-04 14:25:00,
2013-10-04 09:30:00,80.3,79.1,30.02,North,32767,0.0,0.0,96,0.00,,,0.00,Wunderground v.1.15,2013-10-04 14:30:00,
2013-10-04 09:35:00,80.2,79.0,30.02,North,32767,0.0,0.0,96,0.00,,,0.00,Wunderground v.1.15,2013-10-04 14:35:00,
2013-10-04 09:40:00,80.1,78.9,30.03,North,32767,0.0,0.0,96,0.00,,,0.00,Wunderground v.1.15,2013-10-04 14:40:00,
2013-10-04 09:45:00,80.2,79.0,30.02,North,32767,0.0,0.0,96,0.00,,,0.00,Wunderground v.1.15,2013-10-04 14:45:00,
2013-10-04 09:50:00,80.3,78.7,30.03,North,32767,0.0,0.0,95,0.00,,,0.00,Wunderground v.1.15,2013-10-04 14:50:00,
2013-10-04 09:55:00,80.7,79.1,30.03,North,32767,0.0,0.0,95,0.00,,,0.00,Wunderground v.1.15,2013-10-04 14:55:00,
2013-10-04 10:00:00,80.6,79.0,30.03,North,32767,0.0,0.0,95,0.00,,,0.00,Wunderground v.1.15,2013-10-04 15:00:00,
2013-10-04 10:05:00,80.6,79.0,30.03,North,32767,0.0,0.0,95,0.00,,,0.00,Wunderground v.1.15,2013-10-04 15:05:00,
2013-10-04 10:15:00,81.8,79.6,30.03,North,32767,0.0,0.0,93,0.00,,,0.00,Wunderground v.1.15,2013-10-04 15:15:00,
2013-10-04 10:20:00,82.3,80.4,30.03,North,32767,0.0,0.0,94,0.00,,,0.00,Wunderground v.1.15,2013-10-04 15:20:00,
2013-10-04 10:25:00,83.1,81.2,30.03,North,32767,0.0,0.0,94,0.00,,,0.00,Wunderground v.1.15,2013-10-04 15:25:00,
2013-10-04 10:30:00,83.7,80.8,30.03,North,32767,0.0,0.0,91,0.00,,,0.00,Wunderground v.1.15,2013-10-04 15:30:00,
2013-10-04 10:35:00,84.1,80.8,30.03,North,32767,0.0,0.0,90,0.00,,,0.00,Wunderground v.1.15,2013-10-04 15:35:00,
2013-10-04 10:40:00,84.2,80.6,30.03,North,32767,0.0,0.0,89,0.00,,,0.00,Wunderground v.1.15,2013-10-04 15:40:00,
2013-10-04 10:45:00,84.0,81.1,30.03,North,32767,0.0,0.0,91,0.00,,,0.00,Wunderground v.1.15,2013-10-04 15:45:00,
2013-10-04 10:50:00,84.3,81.0,30.03,North,32767,0.0,0.0,90,0.00,,,0.00,Wunderground v.1.15,2013-10-04 15:50:00,
2013-10-04 10:55:00,84.6,81.3,30.03,North,32767,0.0,0.0,90,0.00,,,0.00,Wunderground v.1.15,2013-10-04 15:55:00,
2013-10-04 11:05:00,84.3,80.7,30.03,North,32767,0.0,0.0,89,0.00,,,0.00,Wunderground v.1.15,2013-10-04 16:05:00,
2013-10-04 11:10:00,84.4,81.1,30.03,North,32767,0.0,0.0,90,0.00,,,0.00,Wunderground v.1.15,2013-10-04 16:10:00,
2013-10-04 11:15:00,84.7,81.4,30.03,North,32767,0.0,0.0,90,0.00,,,0.00,Wunderground v.1.15,2013-10-04 16:15:00,
2013-10-04 11:20:00,84.9,81.6,30.03,North,32767,0.0,0.0,90,0.00,,,0.00,Wunderground v.1.15,2013-10-04 16:20:00,
2013-10-04 11:25:00,85.4,82.1,30.03,North,32767,0.0,0.0,90,0.00,,,0.00,Wunderground v.1.15,2013-10-04 16:25:00,
2013-10-04 11:30:00,85.1,81.8,30.04,North,32767,0.0,0.0,90,0.00,,,0.00,Wunderground v.1.15,2013-10-04 16:30:00,
2013-10-04 11:35:00,85.2,81.9,30.03,North,32767,0.0,0.0,90,0.00,,,0.00,Wunderground v.1.15,2013-10-04 16:35:00,
2013-10-04 11:40:00,85.2,81.6,30.04,North,32767,0.0,0.0,89,0.00,,,0.00,Wunderground v.1.15,2013-10-04 16:40:00,
2013-10-04 11:45:00,84.7,81.8,30.03,North,32767,0.0,0.0,91,0.00,,,0.00,Wunderground v.1.15,2013-10-04 16:45:00,
2013-10-04 11:50:00,84.8,81.9,30.03,North,32767,0.0,0.0,91,0.00,,,0.00,Wunderground v.1.15,2013-10-04 16:50:00,
2013-10-04 11:55:00,85.2,82.3,30.03,North,32767,0.0,0.0,91,0.00,,,0.00,Wunderground v.1.15,2013-10-04 16:55:00,
2013-10-04 12:00:00,85.2,81.9,30.03,North,32767,0.0,0.0,90,0.00,,,0.00,Wunderground v.1.15,2013-10-04 17:00:00,
2013-10-04 12:05:00,85.2,81.2,30.03,North,32767,0.0,0.0,88,0.00,,,0.00,Wunderground v.1.15,2013-10-04 17:05:00,
2013-10-04 12:10:00,85.5,80.8,30.03,North,32767,0.0,0.0,86,0.00,,,0.00,Wunderground v.1.15,2013-10-04 17:10:00,
2013-10-04 12:15:00,85.7,81.7,30.03,North,32767,0.0,0.0,88,0.00,,,0.00,Wunderground v.1.15,2013-10-04 17:15:00,
2013-10-04 12:20:00,85.8,81.1,30.03,North,32767,0.0,0.0,86,0.00,,,0.00,Wunderground v.1.15,2013-10-04 17:20:00,
2013-10-04 12:25:00,85.7,81.0,30.03,North,32767,0.0,0.0,86,0.00,,,0.00,Wunderground v.1.15,2013-10-04 17:25:00,
2013-10-04 12:30:00,85.8,81.5,30.03,North,32767,0.0,0.0,87,0.00,,,0.00,Wunderground v.1.15,2013-10-04 17:30:00,
2013-10-04 12:35:00,85.9,81.2,30.02,North,32767,0.0,0.0,86,0.00,,,0.00,Wunderground v.1.15,2013-10-04 17:35:00,
2013-10-04 13:00:00,85.9,80.9,30.02,North,32767,0.0,0.0,85,0.00,,,0.00,Wunderground v.1.15,2013-10-04 18:00:00,
2013-10-04 13:05:00,86.0,81.7,30.02,North,32767,0.0,0.0,87,0.00,,,0.00,Wunderground v.1.15,2013-10-04 18:05:00,
2013-10-04 13:10:00,86.0,81.0,30.02,North,32767,0.0,0.0,85,0.00,,,0.00,Wunderground v.1.15,2013-10-04 18:10:00,
2013-10-04 13:15:00,85.8,81.1,30.02,North,32767,0.0,0.0,86,0.00,,,0.00,Wunderground v.1.15,2013-10-04 18:15:00,
2013-10-04 13:20:00,85.7,81.4,30.01,North,32767,0.0,0.0,87,0.00,,,0.00,Wunderground v.1.15,2013-10-04 18:20:00,
2013-10-04 13:25:00,85.7,81.4,30.01,North,32767,0.0,0.0,87,0.00,,,0.00,Wunderground v.1.15,2013-10-04 18:25:00,
2013-10-04 13:30:00,85.5,81.5,30.01,North,32767,0.0,0.0,88,0.00,,,0.00,Wunderground v.1.15,2013-10-04 18:30:00,
2013-10-04 13:35:00,85.7,81.4,30.01,North,32767,0.0,0.0,87,0.00,,,0.00,Wunderground v.1.15,2013-10-04 18:35:00,
2013-10-04 13:40:00,86.0,81.3,30.01,North,32767,0.0,0.0,86,0.00,,,0.00,Wunderground v.1.15,2013-10-04 18:40:00,
2013-10-04 13:45:00,86.3,81.6,30.01,North,32767,0.0,0.0,86,0.00,,,0.00,Wunderground v.1.15,2013-10-04 18:45:00,
2013-10-04 13:50:00,86.2,81.2,30.01,North,32767,0.0,0.0,85,0.00,,,0.00,Wunderground v.1.15,2013-10-04 18:50:00,
2013-10-04 13:55:00,85.5,80.5,30.00,North,32767,0.0,0.0,85,0.00,,,0.00,Wunderground v.1.15,2013-10-04 18:55:00,
2013-10-04 14:00:00,85.6,80.9,30.01,North,32767,0.0,0.0,86,0.00,,,0.00,Wunderground v.1.15,2013-10-04 19:00:00,
2013-10-04 14:05:00,85.7,81.0,30.01,North,32767,0.0,0.0,86,0.00,,,0.00,Wunderground v.1.15,2013-10-04 19:05:00,
2013-10-04 14:10:00,85.8,80.8,30.01,North,32767,0.0,0.0,85,0.00,,,0.00,Wunderground v.1.15,2013-10-04 19:10:00,
2013-10-04 14:15:00,86.0,81.0,30.00,North,32767,0.0,0.0,85,0.00,,,0.00,Wunderground v.1.15,2013-10-04 19:15:00,
2013-10-04 14:25:00,85.9,80.9,30.00,North,32767,0.0,0.0,85,0.00,,,0.00,Wunderground v.1.15,2013-10-04 19:25:00,
2013-10-04 14:30:00,86.0,81.3,30.00,North,32767,0.0,0.0,86,0.00,,,0.00,Wunderground v.1.15,2013-10-04 19:30:00,
2013-10-04 14:35:00,86.2,81.5,30.00,North,32767,0.0,0.0,86,0.00,,,0.00,Wunderground v.1.15,2013-10-04 19:35:00,
2013-10-04 14:40:00,86.3,81.6,30.00,North,32767,0.0,0.0,86,0.00,,,0.00,Wunderground v.1.15,2013-10-04 19:40:00,
2013-10-04 14:45:00,86.0,81.3,30.00,North,32767,0.0,0.0,86,0.00,,,0.00,Wunderground v.1.15,2013-10-04 19:45:00,
2013-10-04 14:50:00,86.0,81.3,30.00,North,32767,0.0,0.0,86,0.00,,,0.00,Wunderground v.1.15,2013-10-04 19:50:00,
2013-10-04 14:55:00,86.1,81.4,29.99,North,32767,0.0,0.0,86,0.00,,,0.00,Wunderground v.1.15,2013-10-04 19:55:00,
2013-10-04 15:00:00,86.1,81.4,29.99,North,32767,0.0,0.0,86,0.00,,,0.00,Wunderground v.1.15,2013-10-04 20:00:00,
2013-10-04 15:05:00,86.0,81.0,29.99,North,32767,0.0,0.0,85,0.00,,,0.00,Wunderground v.1.15,2013-10-04 20:05:00,
2013-10-04 15:10:00,85.8,81.1,29.99,North,32767,0.0,0.0,86,0.00,,,0.00,Wunderground v.1.15,2013-10-04 20:10:00,
2013-10-04 15:15:00,85.6,80.6,29.99,North,32767,0.0,0.0,85,0.00,,,0.00,Wunderground v.1.15,2013-10-04 20:15:00,
2013-10-04 15:20:00,85.8,81.5,29.99,North,32767,0.0,0.0,87,0.00,,,0.00,Wunderground v.1.15,2013-10-04 20:20:00,
2013-10-04 15:25:00,85.8,80.8,29.99,North,32767,0.0,0.0,85,0.00,,,0.00,Wunderground v.1.15,2013-10-04 20:25:00,
2013-10-04 15:30:00,85.7,81.0,29.99,North,32767,0.0,0.0,86,0.00,,,0.00,Wunderground v.1.15,2013-10-04 20:30:00,
2013-10-04 15:35:00,85.6,81.3,29.99,North,32767,0.0,0.0,87,0.00,,,0.00,Wunderground v.1.15,2013-10-04 20:35:00,
2013-10-04 15:40:00,85.4,81.1,29.98,North,32767,0.0,0.0,87,0.00,,,0.00,Wunderground v.1.15,2013-10-04 20:40:00,
2013-10-04 15:45:00,84.8,80.5,29.98,North,32767,0.0,0.0,87,0.00,,,0.00,Wunderground v.1.15,2013-10-04 20:45:00,
2013-10-04 15:50:00,83.8,80.2,29.99,North,32767,0.0,0.0,89,0.00,,,0.00,Wunderground v.1.15,2013-10-04 20:50:00,
2013-10-04 15:55:00,83.1,79.9,29.98,North,32767,0.0,0.0,90,0.00,,,0.00,Wunderground v.1.15,2013-10-04 20:55:00,
2013-10-04 16:00:00,83.0,79.8,29.99,North,32767,0.0,0.0,90,0.00,,,0.00,Wunderground v.1.15,2013-10-04 21:00:00,
2013-10-04 16:05:00,83.1,79.9,29.99,North,32767,0.0,0.0,90,0.00,,,0.00,Wunderground v.1.15,2013-10-04 21:05:00,
2013-10-04 16:10:00,83.2,80.0,29.99,North,32767,0.0,0.0,90,0.00,,,0.00,Wunderground v.1.15,2013-10-04 21:10:00,
2013-10-04 16:15:00,83.1,79.9,29.98,North,32767,0.0,0.0,90,0.00,,,0.00,Wunderground v.1.15,2013-10-04 21:15:00,
2013-10-04 16:20:00,82.9,79.7,29.99,North,32767,0.0,0.0,90,0.00,,,0.00,Wunderground v.1.15,2013-10-04 21:20:00,
2013-10-04 16:25:00,82.7,79.5,29.99,North,32767,0.0,0.0,90,0.00,,,0.00,Wunderground v.1.15,2013-10-04 21:25:00,
2013-10-04 16:30:00,82.5,79.6,29.98,North,32767,0.0,0.0,91,0.00,,,0.00,Wunderground v.1.15,2013-10-04 21:30:00,
2013-10-04 16:35:00,82.3,79.1,29.99,North,32767,0.0,0.0,90,0.00,,,0.00,Wunderground v.1.15,2013-10-04 21:35:00,
2013-10-04 16:40:00,82.2,79.0,29.99,North,32767,0.0,0.0,90,0.00,,,0.00,Wunderground v.1.15,2013-10-04 21:40:00,
2013-10-04 16:45:00,82.3,79.4,29.99,North,32767,0.0,0.0,91,0.00,,,0.00,Wunderground v.1.15,2013-10-04 21:45:00,
2013-10-04 16:50:00,82.3,79.4,29.99,North,32767,0.0,0.0,91,0.00,,,0.00,Wunderground v.1.15,2013-10-04 21:50:00,
2013-10-04 16:55:00,82.3,79.4,30.00,North,32767,0.0,0.0,91,0.00,,,0.00,Wunderground v.1.15,2013-10-04 21:55:00,
2013-10-04 17:00:00,82.2,79.3,30.00,North,32767,0.0,0.0,91,0.00,,,0.00,Wunderground v.1.15,2013-10-04 22:00:00,
2013-10-04 17:05:00,82.1,78.9,30.00,North,32767,0.0,0.0,90,0.00,,,0.00,Wunderground v.1.15,2013-10-04 22:05:00,
2013-10-04 17:10:00,81.9,79.0,29.99,North,32767,0.0,0.0,91,0.00,,,0.00,Wunderground v.1.15,2013-10-04 22:10:00,
2013-10-04 17:15:00,81.7,79.1,29.99,North,32767,0.0,0.0,92,0.00,,,0.00,Wunderground v.1.15,2013-10-04 22:15:00,
2013-10-04 17:20:00,81.5,78.9,29.99,North,32767,0.0,0.0,92,0.00,,,0.00,Wunderground v.1.15,2013-10-04 22:20:00,
2013-10-04 17:25:00,81.4,78.9,29.99,North,32767,0.0,0.0,92,0.00,,,0.00,Wunderground v.1.15,2013-10-04 22:25:00,
2013-10-04 17:30:00,81.2,78.7,29.99,North,32767,0.0,0.0,92,0.00,,,0.00,Wunderground v.1.15,2013-10-04 22:30:00,
2013-10-04 17:35:00,81.1,78.9,29.99,North,32767,0.0,0.0,93,0.00,,,0.00,Wunderground v.1.15,2013-10-04 22:35:00,
2013-10-04 17:40:00,81.0,78.8,29.99,North,32767,0.0,0.0,93,0.00,,,0.00,Wunderground v.1.15,2013-10-04 22:40:00,
2013-10-04 17:45:00,81.0,78.8,29.99,North,32767,0.0,0.0,93,0.00,,,0.00,Wunderground v.1.15,2013-10-04 22:45:00,
2013-10-04 17:50:00,80.9,78.7,29.99,North,32767,0.0,0.0,93,0.00,,,0.00,Wunderground v.1.15,2013-10-04 22:50:00,
2013-10-04 17:55:00,80.8,78.6,30.00,North,32767,0.0,0.0,93,0.00,,,0.00,Wunderground v.1.15,2013-10-04 22:55:00,
2013-10-04 18:00:00,80.7,78.5,30.00,North,32767,0.0,0.0,93,0.00,,,0.00,Wunderground v.1.15,2013-10-04 23:00:00,
2013-10-04 18:05:00,80.6,78.7,30.00,North,32767,0.0,0.0,94,0.00,,,0.00,Wunderground v.1.15,2013-10-04 23:05:00,
2013-10-04 18:10:00,80.6,78.7,30.00,North,32767,0.0,0.0,94,0.00,,,0.00,Wunderground v.1.15,2013-10-04 23:10:00,
2013-10-04 18:15:00,80.5,78.6,30.00,North,32767,0.0,0.0,94,0.00,,,0.00,Wunderground v.1.15,2013-10-04 23:15:00,
2013-10-04 18:20:00,80.5,78.6,30.00,North,32767,0.0,0.0,94,0.00,,,0.00,Wunderground v.1.15,2013-10-04 23:20:00,
2013-10-04 18:25:00,80.4,78.8,30.00,North,32767,0.0,0.0,95,0.00,,,0.00,Wunderground v.1.15,2013-10-04 23:25:00,
2013-10-04 18:30:00,80.3,78.7,30.00,North,32767,0.0,0.0,95,0.00,,,0.00,Wunderground v.1.15,2013-10-04 23:30:00,
2013-10-04 18:35:00,80.2,78.6,30.00,North,32767,0.0,0.0,95,0.00,,,0.00,Wunderground v.1.15,2013-10-04 23:35:00,
2013-10-04 18:40:00,80.0,78.4,30.00,North,32767,0.0,0.0,95,0.00,,,0.00,Wunderground v.1.15,2013-10-04 23:40:00,
2013-10-04 18:45:00,79.9,78.3,30.00,North,32767,0.0,0.0,95,0.00,,,0.00,Wunderground v.1.15,2013-10-04 23:45:00,
2013-10-04 18:50:00,79.9,78.3,30.00,North,32767,0.0,0.0,95,0.00,,,0.00,Wunderground v.1.15,2013-10-04 23:50:00,
2013-10-04 18:55:00,79.9,78.3,29.99,North,32767,0.0,0.0,95,0.00,,,0.00,Wunderground v.1.15,2013-10-04 23:55:00,
2013-10-04 19:00:00,79.9,78.3,29.99,North,32767,0.0,0.0,95,0.00,,,0.00,Wunderground v.1.15,2013-10-05 00:00:00,
2013-10-04 19:05:00,79.9,78.3,30.00,North,32767,0.0,0.0,95,0.00,,,0.00,Wunderground v.1.15,2013-10-05 00:05:00,
2013-10-04 19:15:00,79.9,78.3,29.99,North,32767,0.0,0.0,95,0.00,,,0.00,Wunderground v.1.15,2013-10-05 00:15:00,
2013-10-04 19:20:00,79.8,77.9,30.00,North,32767,0.0,0.0,94,0.00,,,0.00,Wunderground v.1.15,2013-10-05 00:20:00,
2013-10-04 19:30:00,79.3,76.1,30.00,North,32767,0.0,0.0,90,0.00,,,0.00,Wunderground v.1.15,2013-10-05 00:30:00,
2013-10-04 19:35:00,79.1,75.6,29.99,North,32767,0.0,0.0,89,0.00,,,0.00,Wunderground v.1.15,2013-10-05 00:35:00,
2013-10-04 19:40:00,78.9,75.7,30.00,North,32767,0.0,0.0,90,0.00,,,0.00,Wunderground v.1.15,2013-10-05 00:40:00,
2013-10-04 19:45:00,78.8,75.9,30.00,North,32767,0.0,0.0,91,0.00,,,0.00,Wunderground v.1.15,2013-10-05 00:45:00,
2013-10-04 19:50:00,78.7,75.8,30.00,North,32767,0.0,0.0,91,0.00,,,0.00,Wunderground v.1.15,2013-10-05 00:50:00,
2013-10-04 19:55:00,78.7,75.8,30.00,North,32767,0.0,0.0,91,0.00,,,0.00,Wunderground v.1.15,2013-10-05 00:55:00,
2013-10-04 20:00:00,78.7,76.2,30.01,North,32767,0.0,0.0,92,0.00,,,0.00,Wunderground v.1.15,2013-10-05 01:00:00,
2013-10-04 20:05:00,78.5,76.3,30.00,North,32767,0.0,0.0,93,0.00,,,0.00,Wunderground v.1.15,2013-10-05 01:05:00,
2013-10-04 20:10:00,78.4,76.2,30.00,North,32767,0.0,0.0,93,0.00,,,0.00,Wunderground v.1.15,2013-10-05 01:10:00,
2013-10-04 20:15:00,78.1,76.2,30.01,North,32767,0.0,0.0,94,0.00,,,0.00,Wunderground v.1.15,2013-10-05 01:15:00,
2013-10-04 20:20:00,77.9,76.4,30.01,North,32767,0.0,0.0,95,0.00,,,0.00,Wunderground v.1.15,2013-10-05 01:20:00,
2013-10-04 20:25:00,77.7,76.2,30.01,North,32767,0.0,0.0,95,0.00,,,0.00,Wunderground v.1.15,2013-10-05 01:25:00,
2013-10-04 20:30:00,77.5,76.3,30.01,North,32767,0.0,0.0,96,0.00,,,0.00,Wunderground v.1.15,2013-10-05 01:30:00,
2013-10-04 20:35:00,77.5,76.3,30.01,North,32767,0.0,0.0,96,0.00,,,0.00,Wunderground v.1.15,2013-10-05 01:35:00,
2013-10-04 20:40:00,77.5,76.6,30.01,North,32767,0.0,0.0,97,0.00,,,0.00,Wunderground v.1.15,2013-10-05 01:40:00,
2013-10-04 20:45:00,77.4,76.5,30.01,North,32767,0.0,0.0,97,0.00,,,0.00,Wunderground v.1.15,2013-10-05 01:45:00,
2013-10-04 20:50:00,77.5,76.6,30.01,North,32767,0.0,0.0,97,0.00,,,0.00,Wunderground v.1.15,2013-10-05 01:50:00,
2013-10-04 20:55:00,77.5,76.6,30.01,North,32767,0.0,0.0,97,0.00,,,0.00,Wunderground v.1.15,2013-10-05 01:55:00,
2013-10-04 21:00:00,78.0,76.8,30.02,North,32767,0.0,0.0,96,0.00,,,0.00,Wunderground v.1.15,2013-10-05 02:00:00,
2013-10-04 21:05:00,78.5,76.9,30.02,North,32767,0.0,0.0,95,0.00,,,0.00,Wunderground v.1.15,2013-10-05 02:05:00,
2013-10-04 21:10:00,79.0,77.4,30.02,North,32767,0.0,0.0,95,0.00,,,0.00,Wunderground v.1.15,2013-10-05 02:10:00,
2013-10-04 21:15:00,79.4,77.8,30.02,North,32767,0.0,0.0,95,0.00,,,0.00,Wunderground v.1.15,2013-10-05 02:15:00,
2013-10-04 21:20:00,79.4,77.5,30.02,North,32767,0.0,0.0,94,0.00,,,0.00,Wunderground v.1.15,2013-10-05 02:20:00,
2013-10-04 21:25:00,79.5,77.6,30.02,North,32767,0.0,0.0,94,0.00,,,0.00,Wunderground v.1.15,2013-10-05 02:25:00,
2013-10-04 21:30:00,79.7,77.8,30.02,North,32767,0.0,0.0,94,0.00,,,0.00,Wunderground v.1.15,2013-10-05 02:30:00,
2013-10-04 21:35:00,79.8,77.9,30.01,North,32767,0.0,0.0,94,0.00,,,0.00,Wunderground v.1.15,2013-10-05 02:35:00,
2013-10-04 21:40:00,79.8,78.2,30.01,North,32767,0.0,0.0,95,0.00,,,0.00,Wunderground v.1.15,2013-10-05 02:40:00,
2013-10-04 21:45:00,79.8,78.2,30.02,North,32767,0.0,0.0,95,0.00,,,0.00,Wunderground v.1.15,2013-10-05 02:45:00,
2013-10-04 21:50:00,79.8,78.2,30.02,North,32767,0.0,0.0,95,0.00,,,0.00,Wunderground v.1.15,2013-10-05 02:50:00,
2013-10-04 21:55:00,79.8,78.2,30.02,North,32767,0.0,0.0,95,0.00,,,0.00,Wunderground v.1.15,2013-10-05 02:55:00,
2013-10-04 22:00:00,79.8,78.2,30.02,North,32767,0.0,0.0,95,0.00,,,0.00,Wunderground v.1.15,2013-10-05 03:00:00,
2013-10-04 22:05:00,80.0,78.8,30.02,North,32767,0.0,0.0,96,0.00,,,0.00,Wunderground v.1.15,2013-10-05 03:05:00,
2013-10-04 22:10:00,80.1,78.5,30.02,North,32767,0.0,0.0,95,0.00,,,0.00,Wunderground v.1.15,2013-10-05 03:10:00,
2013-10-04 22:15:00,80.1,78.5,30.02,North,32767,0.0,0.0,95,0.00,,,0.00,Wunderground v.1.15,2013-10-05 03:15:00,
2013-10-04 22:25:00,80.1,78.9,30.02,North,32767,0.0,0.0,96,0.00,,,0.00,Wunderground v.1.15,2013-10-05 03:25:00,
2013-10-04 22:30:00,80.1,78.9,30.02,North,32767,0.0,0.0,96,0.00,,,0.00,Wunderground v.1.15,2013-10-05 03:30:00,
2013-10-04 22:35:00,80.0,78.8,30.02,North,32767,0.0,0.0,96,0.00,,,0.00,Wunderground v.1.15,2013-10-05 03:35:00,
2013-10-04 22:40:00,80.0,78.8,30.02,North,32767,0.0,0.0,96,0.00,,,0.00,Wunderground v.1.15,2013-10-05 03:40:00,
2013-10-04 22:45:00,80.0,78.8,30.02,North,32767,0.0,0.0,96,0.00,,,0.00,Wunderground v.1.15,2013-10-05 03:45:00,
2013-10-04 22:50:00,80.0,79.1,30.02,North,32767,0.0,0.0,97,0.00,,,0.00,Wunderground v.1.15,2013-10-05 03:50:00,
2013-10-04 22:55:00,80.1,78.9,30.02,North,32767,0.0,0.0,96,0.00,,,0.00,Wunderground v.1.15,2013-10-05 03:55:00,
2013-10-04 23:00:00,80.1,78.9,30.01,North,32767,0.0,0.0,96,0.00,,,0.00,Wunderground v.1.15,2013-10-05 04:00:00,
2013-10-04 23:05:00,80.2,79.0,30.01,North,32767,0.0,0.0,96,0.00,,,0.00,Wunderground v.1.15,2013-10-05 04:05:00,
2013-10-04 23:10:00,80.2,79.0,30.01,North,32767,0.0,0.0,96,0.00,,,0.00,Wunderground v.1.15,2013-10-05 04:10:00,
2013-10-04 23:15:00,80.2,78.6,30.01,North,32767,0.0,0.0,95,0.00,,,0.00,Wunderground v.1.15,2013-10-05 04:15:00,
2013-10-04 23:20:00,80.3,78.7,30.01,North,32767,0.0,0.0,95,0.00,,,0.00,Wunderground v.1.15,2013-10-05 04:20:00,
2013-10-04 23:25:00,80.3,78.7,30.01,North,32767,0.0,0.0,95,0.00,,,0.00,Wunderground v.1.15,2013-10-05 04:25:00,
2013-10-04 23:30:00,80.4,78.8,30.01,North,32767,0.0,0.0,95,0.00,,,0.00,Wunderground v.1.15,2013-10-05 04:30:00,
2013-10-04 23:35:00,80.4,78.8,30.00,North,32767,0.0,0.0,95,0.00,,,0.00,Wunderground v.1.15,2013-10-05 04:35:00,
2013-10-04 23:40:00,80.4,78.8,30.00,North,32767,0.0,0.0,95,0.00,,,0.00,Wunderground v.1.15,2013-10-05 04:40:00,
2013-10-04 23:45:00,80.4,78.8,30.00,North,32767,0.0,0.0,95,0.00,,,0.00,Wunderground v.1.15,2013-10-05 04:45:00,
2013-10-04 23:50:00,80.5,79.3,30.00,North,32767,0.0,0.0,96,0.00,,,0.00,Wunderground v.1.15,2013-10-05 04:50:00,
2013-10-04 23:55:00,80.4,78.8,29.99,North,32767,0.0,0.0,95,0.00,,,0.00,Wunderground v.1.15,2013-10-05 04:55:00,